Time;durP1;ratioP1;P1;durP2;ratioP2;P2;SDS_P1;SDS_P2;PMS_P1;PMS_P2;Temp;Humidity;BMP_temperature;BMP_pressure;BME280_temperature;BME280_humidity;BME280_pressure;Samples;Min_cycle;Max_cycle;Signal;HPM_P1;HPM_P2
2021/12/06 00:01:16;;;;;;;4.65;4.25;;;;;;;;;;4928819;29;20036;-79
2021/12/06 00:03:47;;;;;;;4.45;4.05;;;;;;;;;;4929938;29;20394;-76
2021/12/06 00:06:16;;;;;;;4.45;4.15;;;;;;;;;;4934535;29;20070;-77
2021/12/06 00:08:41;;;;;;;4.85;4.38;;;;;;;;;;4911740;29;20048;-77
2021/12/06 00:11:09;;;;;;;8.02;4.20;;;;;;;;;;4930620;29;20042;-76
2021/12/06 00:13:36;;;;;;;5.38;4.35;;;;;;;;;;4931839;29;20028;-77
2021/12/06 00:16:07;;;;;;;4.50;4.10;;;;;;;;;;4932099;29;20074;-77
2021/12/06 00:18:32;;;;;;;4.50;4.00;;;;;;;;;;4931908;29;20062;-76
2021/12/06 00:20:58;;;;;;;5.07;4.22;;;;;;;;;;4931525;29;20518;-76
2021/12/06 00:23:24;;;;;;;4.45;4.15;;;;;;;;;;4932834;29;20099;-76
2021/12/06 00:25:49;;;;;;;5.63;5.05;;;;;;;;;;4913393;29;20074;-76
2021/12/06 00:28:14;;;;;;;7.00;4.78;;;;;;;;;;4930193;29;20079;-77
2021/12/06 00:30:40;;;;;;;8.88;4.93;;;;;;;;;;4913936;29;20138;-77
2021/12/06 00:33:05;;;;;;;4.90;4.47;;;;;;;;;;4932137;29;20052;-78
2021/12/06 00:35:31;;;;;;;5.10;4.43;;;;;;;;;;4932353;29;20951;-79
2021/12/06 00:37:58;;;;;;;5.68;4.63;;;;;;;;;;4915802;29;20042;-77
2021/12/06 00:40:32;;;;;;;4.40;4.00;;;;;;;;;;4931699;29;20036;-78
2021/12/06 00:42:58;;;;;;;6.93;4.55;;;;;;;;;;4921140;29;20626;-78
2021/12/06 00:45:24;;;;;;;4.25;3.88;;;;;;;;;;4935086;29;20036;-77
2021/12/06 00:47:50;;;;;;;5.38;4.95;;;;;;;;;;4934642;29;20027;-77
2021/12/06 00:50:17;;;;;;;7.70;4.22;;;;;;;;;;4935383;29;20039;-77
2021/12/06 00:52:43;;;;;;;5.90;3.88;;;;;;;;;;4935083;29;20047;-76
2021/12/06 00:55:09;;;;;;;5.05;4.47;;;;;;;;;;4917240;29;20086;-77
2021/12/06 00:57:35;;;;;;;5.30;4.30;;;;;;;;;;4935456;29;20196;-76
2021/12/06 01:00:10;;;;;;;4.85;4.38;;;;;;;;;;4922625;29;20040;-76
2021/12/06 01:02:35;;;;;;;7.13;6.53;;;;;;;;;;4916783;29;20395;-76
2021/12/06 01:05:01;;;;;;;5.88;4.82;;;;;;;;;;4916361;29;20068;-76
2021/12/06 01:07:27;;;;;;;4.50;4.20;;;;;;;;;;4915610;29;20050;-76
2021/12/06 01:09:52;;;;;;;4.55;4.25;;;;;;;;;;4915560;29;20076;-77
2021/12/06 01:12:18;;;;;;;7.68;4.85;;;;;;;;;;4915750;29;20031;-76
2021/12/06 01:14:44;;;;;;;6.88;4.45;;;;;;;;;;4914958;29;20055;-77
2021/12/06 01:17:09;;;;;;;5.38;4.85;;;;;;;;;;4915424;29;20047;-77
2021/12/06 01:19:37;;;;;;;4.93;4.53;;;;;;;;;;4916051;29;20560;-77
2021/12/06 01:24:45;;;;;;;6.97;4.32;;;;;;;;;;4915725;29;20039;-78
2021/12/06 01:27:44;;;;;;;7.95;4.88;;;;;;;;;;4915608;29;20035;-78
2021/12/06 01:33:18;;;;;;;8.20;7.53;;;;;;;;;;4916071;29;20422;-78
2021/12/06 01:41:14;;;;;;;4.88;4.47;;;;;;;;;;4915655;29;20122;-77
2021/12/06 01:44:05;;;;;;;5.97;4.93;;;;;;;;;;4915612;29;20036;-78
2021/12/06 01:46:32;;;;;;;7.90;4.63;;;;;;;;;;4915778;29;20115;-77
2021/12/06 01:48:58;;;;;;;7.82;7.15;;;;;;;;;;4915341;29;20446;-77
2021/12/06 01:51:24;;;;;;;5.45;4.60;;;;;;;;;;4915695;29;20088;-78
2021/12/06 01:53:49;;;;;;;7.03;4.78;;;;;;;;;;4915695;29;20079;-78
2021/12/06 01:56:15;;;;;;;7.15;6.68;;;;;;;;;;4915634;29;20439;-77
2021/12/06 01:58:43;;;;;;;4.72;4.32;;;;;;;;;;4915364;29;20032;-78
2021/12/06 02:01:10;;;;;;;4.85;4.40;;;;;;;;;;4915561;29;20032;-78
2021/12/06 02:03:36;;;;;;;5.10;4.57;;;;;;;;;;4915685;29;20155;-78
2021/12/06 02:06:01;;;;;;;4.63;4.22;;;;;;;;;;4915534;29;20122;-76
2021/12/06 02:08:27;;;;;;;5.55;4.95;;;;;;;;;;4915272;29;20040;-76
2021/12/06 02:10:59;;;;;;;5.63;4.97;;;;;;;;;;4914842;29;20099;-77
2021/12/06 02:13:28;;;;;;;8.85;4.45;;;;;;;;;;4914980;29;20040;-77
2021/12/06 02:15:54;;;;;;;10.02;4.47;;;;;;;;;;4915109;29;20119;-77
2021/12/06 02:19:01;;;;;;;6.38;5.78;;;;;;;;;;4914909;29;20383;-77
2021/12/06 02:21:20;;;;;;;5.18;4.68;;;;;;;;;;4913068;29;20127;-78
2021/12/06 02:23:49;;;;;;;12.05;4.85;;;;;;;;;;4915462;29;20035;-78
2021/12/06 02:26:16;;;;;;;5.38;4.88;;;;;;;;;;4915127;29;20044;-77
2021/12/06 02:28:42;;;;;;;7.88;5.43;;;;;;;;;;4914385;29;20028;-77
2021/12/06 02:31:08;;;;;;;6.85;5.57;;;;;;;;;;4914852;29;20058;-77
2021/12/06 02:33:34;;;;;;;8.13;5.35;;;;;;;;;;4915232;29;20106;-77
2021/12/06 02:35:59;;;;;;;7.00;5.30;;;;;;;;;;4914863;29;20044;-78
2021/12/06 02:38:25;;;;;;;7.75;7.20;;;;;;;;;;4914710;29;20431;-77
2021/12/06 02:40:51;;;;;;;5.40;4.13;;;;;;;;;;4914873;29;20032;-77
2021/12/06 02:43:16;;;;;;;5.85;4.95;;;;;;;;;;4915193;29;20028;-77
2021/12/06 02:45:44;;;;;;;5.05;4.55;;;;;;;;;;4914833;29;20059;-77
2021/12/06 02:48:12;;;;;;;9.60;4.90;;;;;;;;;;4914882;29;20075;-76
2021/12/06 02:50:49;;;;;;;9.48;5.22;;;;;;;;;;4914967;29;20857;-77
2021/12/06 02:53:16;;;;;;;10.18;6.00;;;;;;;;;;4914638;29;20411;-76
2021/12/06 02:55:43;;;;;;;8.05;5.25;;;;;;;;;;4915047;29;20091;-77
2021/12/06 02:58:15;;;;;;;5.72;5.22;;;;;;;;;;4914695;29;20032;-77
2021/12/06 03:00:48;;;;;;;7.97;7.28;;;;;;;;;;4915396;29;20445;-77
2021/12/06 03:03:16;;;;;;;5.45;4.97;;;;;;;;;;4915188;29;20128;-77
2021/12/06 03:05:42;;;;;;;5.75;5.15;;;;;;;;;;4897703;29;20510;-77
2021/12/06 03:08:08;;;;;;;12.20;5.30;;;;;;;;;;4915022;29;20032;-76
2021/12/06 03:10:33;;;;;;;5.90;4.97;;;;;;;;;;4914671;29;20042;-76
2021/12/06 03:12:59;;;;;;;7.07;5.45;;;;;;;;;;4914751;29;20119;-76
2021/12/06 03:15:26;;;;;;;13.98;5.82;;;;;;;;;;4914207;29;20032;-76
2021/12/06 03:17:52;;;;;;;6.75;5.38;;;;;;;;;;4914468;29;20036;-76
2021/12/06 03:20:17;;;;;;;7.35;5.38;;;;;;;;;;4914707;29;20039;-77
2021/12/06 03:22:44;;;;;;;6.88;5.53;;;;;;;;;;4914369;29;20119;-76
2021/12/06 03:25:12;;;;;;;7.45;4.97;;;;;;;;;;4914222;29;20036;-76
2021/12/06 03:27:37;;;;;;;5.35;4.85;;;;;;;;;;4913996;29;20035;-77
2021/12/06 03:30:06;;;;;;;5.13;4.55;;;;;;;;;;4914250;29;20363;-77
2021/12/06 03:32:32;;;;;;;4.65;4.25;;;;;;;;;;4914057;29;20091;-76
2021/12/06 03:34:57;;;;;;;8.15;5.82;;;;;;;;;;4914262;29;20076;-78
2021/12/06 03:37:23;;;;;;;7.03;4.90;;;;;;;;;;4914145;29;20124;-77
2021/12/06 03:39:48;;;;;;;8.85;5.63;;;;;;;;;;4918276;29;20059;-77
2021/12/06 03:42:16;;;;;;;6.63;4.78;;;;;;;;;;4918315;29;20067;-77
2021/12/06 03:44:42;;;;;;;7.68;5.28;;;;;;;;;;4918198;29;20044;-77
2021/12/06 03:47:18;;;;;;;8.63;4.85;;;;;;;;;;4901083;29;20451;-77
2021/12/06 03:49:44;;;;;;;5.50;4.70;;;;;;;;;;4917563;29;20043;-77
2021/12/06 03:52:10;;;;;;;5.30;4.78;;;;;;;;;;4917749;29;20119;-78
2021/12/06 03:54:36;;;;;;;6.88;5.07;;;;;;;;;;4917922;29;20036;-77
2021/12/06 03:57:03;;;;;;;8.00;4.82;;;;;;;;;;4917956;29;20043;-77
2021/12/06 03:59:29;;;;;;;6.13;5.22;;;;;;;;;;4917403;29;20114;-76
2021/12/06 04:01:55;;;;;;;10.27;5.20;;;;;;;;;;4917671;29;20115;-77
2021/12/06 04:04:21;;;;;;;5.70;4.28;;;;;;;;;;4917857;29;20114;-77
2021/12/06 04:06:47;;;;;;;5.63;5.03;;;;;;;;;;4917777;29;20071;-77
2021/12/06 04:09:13;;;;;;;9.82;5.32;;;;;;;;;;4917650;29;20042;-76
2021/12/06 04:11:39;;;;;;;6.30;5.07;;;;;;;;;;4917476;29;20043;-77
2021/12/06 04:14:05;;;;;;;9.73;5.32;;;;;;;;;;4917983;29;20039;-77
2021/12/06 04:16:31;;;;;;;9.85;5.53;;;;;;;;;;4917665;29;20043;-77
2021/12/06 04:18:57;;;;;;;6.47;4.40;;;;;;;;;;4917460;29;20040;-77
2021/12/06 04:21:24;;;;;;;5.10;4.70;;;;;;;;;;4900409;29;20039;-77
2021/12/06 04:23:49;;;;;;;5.95;4.85;;;;;;;;;;4917324;29;20040;-78
2021/12/06 04:26:16;;;;;;;7.15;5.15;;;;;;;;;;4917567;29;20510;-77
2021/12/06 04:28:47;;;;;;;8.48;5.32;;;;;;;;;;4917176;29;20052;-77
2021/12/06 04:31:15;;;;;;;8.15;4.85;;;;;;;;;;4917397;29;20066;-78
2021/12/06 04:33:40;;;;;;;4.38;4.03;;;;;;;;;;4917255;29;20044;-78
2021/12/06 04:36:06;;;;;;;10.93;10.13;;;;;;;;;;4917045;29;20384;-77
2021/12/06 04:38:32;;;;;;;8.63;4.97;;;;;;;;;;4917293;29;20035;-79
2021/12/06 04:40:57;;;;;;;8.55;7.78;;;;;;;;;;4916870;29;20387;-76
2021/12/06 04:43:23;;;;;;;6.07;5.55;;;;;;;;;;4916817;29;20047;-78
2021/12/06 04:45:49;;;;;;;4.90;4.50;;;;;;;;;;4916990;29;20087;-78
2021/12/06 04:48:14;;;;;;;6.35;5.63;;;;;;;;;;4917421;29;20032;-76
2021/12/06 04:50:42;;;;;;;9.30;6.65;;;;;;;;;;4916437;29;20032;-76
2021/12/06 04:53:15;;;;;;;4.75;4.28;;;;;;;;;;4916714;29;20043;-77
2021/12/06 04:55:48;;;;;;;5.00;4.20;;;;;;;;;;4916313;29;20118;-76
2021/12/06 04:58:21;;;;;;;7.45;6.82;;;;;;;;;;4916370;29;20408;-75
2021/12/06 05:01:01;;;;;;;10.63;9.77;;;;;;;;;;4916304;29;20448;-76
2021/12/06 05:03:27;;;;;;;6.03;4.25;;;;;;;;;;4916414;29;20092;-75
2021/12/06 05:05:57;;;;;;;6.63;5.20;;;;;;;;;;4916707;29;20120;-75
2021/12/06 05:08:32;;;;;;;8.85;5.07;;;;;;;;;;4916615;29;20092;-77
2021/12/06 05:11:00;;;;;;;4.60;4.20;;;;;;;;;;4916247;29;20494;-75
2021/12/06 05:13:26;;;;;;;5.03;4.72;;;;;;;;;;4916678;29;20036;-76
2021/12/06 05:15:52;;;;;;;5.13;4.15;;;;;;;;;;4916296;29;20442;-77
2021/12/06 05:18:17;;;;;;;5.45;4.25;;;;;;;;;;4916411;29;20131;-76
2021/12/06 05:20:43;;;;;;;6.70;5.07;;;;;;;;;;4916596;29;20380;-76
2021/12/06 05:23:10;;;;;;;9.50;5.70;;;;;;;;;;4916388;29;20064;-77
2021/12/06 05:25:36;;;;;;;6.03;5.15;;;;;;;;;;4916390;29;20035;-77
2021/12/06 05:28:03;;;;;;;6.03;4.63;;;;;;;;;;4899426;29;20035;-77
2021/12/06 05:30:29;;;;;;;7.65;4.07;;;;;;;;;;4915838;29;20519;-76
2021/12/06 05:32:58;;;;;;;11.55;5.72;;;;;;;;;;4916131;29;20063;-76
2021/12/06 05:35:25;;;;;;;7.25;5.03;;;;;;;;;;4917282;29;20036;-77
2021/12/06 05:37:54;;;;;;;6.07;4.80;;;;;;;;;;4917936;29;20032;-76
2021/12/06 05:40:24;;;;;;;7.90;5.43;;;;;;;;;;4917854;29;20039;-76
2021/12/06 05:42:49;;;;;;;7.28;4.50;;;;;;;;;;4918008;29;20032;-76
2021/12/06 05:45:18;;;;;;;11.57;4.50;;;;;;;;;;4917528;29;20047;-77
2021/12/06 05:47:44;;;;;;;5.97;5.47;;;;;;;;;;4917741;29;20067;-78
2021/12/06 05:50:10;;;;;;;13.60;6.05;;;;;;;;;;4917697;29;20046;-77
2021/12/06 05:52:36;;;;;;;8.38;5.88;;;;;;;;;;4917587;29;20044;-76
2021/12/06 05:55:04;;;;;;;8.98;5.47;;;;;;;;;;4917386;29;20032;-76
2021/12/06 05:57:30;;;;;;;5.82;4.70;;;;;;;;;;4917547;29;20092;-80
2021/12/06 05:59:55;;;;;;;5.88;5.30;;;;;;;;;;4901237;29;20040;-78
2021/12/06 06:02:22;;;;;;;4.85;4.45;;;;;;;;;;4916495;29;20046;-77
2021/12/06 06:04:47;;;;;;;6.05;5.50;;;;;;;;;;4917216;29;20032;-75
2021/12/06 06:07:13;;;;;;;9.23;5.20;;;;;;;;;;4917547;29;20054;-76
2021/12/06 06:09:39;;;;;;;7.90;7.20;;;;;;;;;;4917502;29;20032;-78
2021/12/06 06:12:05;;;;;;;7.18;4.88;;;;;;;;;;4900825;29;20097;-78
2021/12/06 06:14:31;;;;;;;7.65;4.95;;;;;;;;;;4918031;29;20369;-81
2021/12/06 06:17:06;;;;;;;8.80;6.38;;;;;;;;;;4917339;29;20067;-78
2021/12/06 06:19:36;;;;;;;6.55;5.25;;;;;;;;;;4917356;29;20126;-78
2021/12/06 06:22:02;;;;;;;5.90;5.30;;;;;;;;;;4917534;29;20032;-77
2021/12/06 06:24:31;;;;;;;6.38;5.85;;;;;;;;;;4917668;29;20032;-80
2021/12/06 06:26:56;;;;;;;5.72;5.18;;;;;;;;;;4917159;29;20395;-78
2021/12/06 06:29:22;;;;;;;10.00;5.40;;;;;;;;;;4917239;29;20044;-79
2021/12/06 06:31:47;;;;;;;7.75;5.03;;;;;;;;;;4916725;29;20139;-78
2021/12/06 06:34:16;;;;;;;5.95;5.38;;;;;;;;;;4917139;29;20028;-80
2021/12/06 06:36:41;;;;;;;5.70;4.28;;;;;;;;;;4915277;29;20058;-77
2021/12/06 06:39:09;;;;;;;7.97;5.25;;;;;;;;;;4915313;29;20064;-79
2021/12/06 06:41:36;;;;;;;5.47;4.93;;;;;;;;;;4914970;29;20040;-78
2021/12/06 06:44:01;;;;;;;5.88;4.82;;;;;;;;;;4915129;29;20040;-78
2021/12/06 06:46:27;;;;;;;5.55;5.15;;;;;;;;;;4915387;29;20043;-79
2021/12/06 06:48:53;;;;;;;7.32;5.20;;;;;;;;;;4915238;29;20055;-78
2021/12/06 06:51:19;;;;;;;9.63;6.07;;;;;;;;;;4915510;29;20046;-78
2021/12/06 06:53:44;;;;;;;7.00;5.47;;;;;;;;;;4914665;29;20067;-79
2021/12/06 06:56:10;;;;;;;10.10;5.55;;;;;;;;;;4915036;29;20036;-80
2021/12/06 06:58:36;;;;;;;8.63;7.82;;;;;;;;;;4915288;29;20391;-80
2021/12/06 07:01:04;;;;;;;5.90;5.35;;;;;;;;;;4915516;29;20702;-80
2021/12/06 07:03:31;;;;;;;6.05;5.55;;;;;;;;;;4914991;29;20039;-79
2021/12/06 07:05:59;;;;;;;6.85;6.22;;;;;;;;;;4915631;29;20419;-82
2021/12/06 07:08:24;;;;;;;5.97;5.45;;;;;;;;;;4915122;29;20465;-78
2021/12/06 07:10:51;;;;;;;5.80;5.28;;;;;;;;;;4915591;29;20142;-80
2021/12/06 07:13:18;;;;;;;6.47;5.45;;;;;;;;;;4915555;29;20849;-80
2021/12/06 07:15:45;;;;;;;10.50;5.65;;;;;;;;;;4914857;29;20028;-79
2021/12/06 07:18:10;;;;;;;5.80;4.97;;;;;;;;;;4914668;29;20801;-80
2021/12/06 07:20:36;;;;;;;6.30;5.28;;;;;;;;;;4914882;29;20035;-78
2021/12/06 07:23:03;;;;;;;5.75;5.25;;;;;;;;;;4915182;29;20111;-80
2021/12/06 07:25:29;;;;;;;8.85;5.18;;;;;;;;;;4914800;29;20505;-79
2021/12/06 07:27:57;;;;;;;6.22;5.63;;;;;;;;;;4915377;29;20036;-79
2021/12/06 07:30:23;;;;;;;6.60;5.63;;;;;;;;;;4915336;29;20538;-79
2021/12/06 07:32:52;;;;;;;6.15;5.18;;;;;;;;;;4915334;29;20040;-80
2021/12/06 07:35:22;;;;;;;6.05;5.50;;;;;;;;;;4897829;29;20039;-78
2021/12/06 07:37:48;;;;;;;7.43;5.38;;;;;;;;;;4914322;29;20060;-81
2021/12/06 07:40:15;;;;;;;8.32;5.68;;;;;;;;;;4915235;29;20107;-79
2021/12/06 07:42:42;;;;;;;5.95;4.65;;;;;;;;;;4914846;29;20043;-79
2021/12/06 07:45:10;;;;;;;7.47;6.03;;;;;;;;;;4915010;29;20028;-79
2021/12/06 07:47:37;;;;;;;6.38;5.38;;;;;;;;;;4914721;29;20028;-80
2021/12/06 07:50:05;;;;;;;6.70;5.15;;;;;;;;;;4898103;29;20048;-80
2021/12/06 07:52:31;;;;;;;12.57;6.07;;;;;;;;;;4914759;29;20067;-78
2021/12/06 07:54:59;;;;;;;6.55;5.95;;;;;;;;;;4914841;29;20066;-79
2021/12/06 07:57:25;;;;;;;6.50;5.88;;;;;;;;;;4914341;29;20539;-79
2021/12/06 07:59:50;;;;;;;8.10;5.47;;;;;;;;;;4914384;29;20119;-79
2021/12/06 08:02:17;;;;;;;6.30;5.15;;;;;;;;;;4914726;29;20044;-79
2021/12/06 08:04:43;;;;;;;5.57;5.00;;;;;;;;;;4915208;29;20058;-80
2021/12/06 08:07:08;;;;;;;11.82;5.53;;;;;;;;;;4914852;29;20036;-79
2021/12/06 08:09:34;;;;;;;6.72;5.50;;;;;;;;;;4914184;29;20040;-80
2021/12/06 08:11:59;;;;;;;7.63;5.32;;;;;;;;;;4914170;29;20072;-79
2021/12/06 08:14:25;;;;;;;10.50;5.82;;;;;;;;;;4914153;29;20095;-79
2021/12/06 08:16:51;;;;;;;8.43;4.80;;;;;;;;;;4914290;29;20071;-80
2021/12/06 08:19:18;;;;;;;8.00;5.93;;;;;;;;;;4914277;29;20063;-81
2021/12/06 08:21:43;;;;;;;12.02;11.13;;;;;;;;;;4913951;29;20407;-80
2021/12/06 08:24:09;;;;;;;6.68;5.82;;;;;;;;;;4915229;29;20032;-79
2021/12/06 08:26:38;;;;;;;6.00;4.93;;;;;;;;;;4918080;29;20092;-80
2021/12/06 08:29:06;;;;;;;14.23;5.63;;;;;;;;;;4901345;29;20044;-80
2021/12/06 08:31:37;;;;;;;7.72;5.40;;;;;;;;;;4917589;29;20060;-79
2021/12/06 08:34:03;;;;;;;6.72;5.47;;;;;;;;;;4917431;29;20040;-80
2021/12/06 08:36:29;;;;;;;7.55;5.07;;;;;;;;;;4917771;29;20036;-79
2021/12/06 08:38:55;;;;;;;5.95;5.30;;;;;;;;;;4917780;29;20038;-79
2021/12/06 08:41:24;;;;;;;7.70;5.13;;;;;;;;;;4901141;29;20064;-78
2021/12/06 08:43:51;;;;;;;6.57;5.13;;;;;;;;;;4917097;29;20039;-80
2021/12/06 08:46:20;;;;;;;6.38;5.75;;;;;;;;;;4917213;29;20528;-78
2021/12/06 08:48:48;;;;;;;6.70;5.15;;;;;;;;;;4917432;29;20043;-79
2021/12/06 08:51:20;;;;;;;7.97;6.95;;;;;;;;;;4917425;29;20440;-78
2021/12/06 08:53:47;;;;;;;7.32;4.78;;;;;;;;;;4917719;29;20491;-79
2021/12/06 08:56:14;;;;;;;6.45;5.43;;;;;;;;;;4917565;29;20042;-80
2021/12/06 08:58:40;;;;;;;6.13;5.43;;;;;;;;;;4917020;29;20044;-80
2021/12/06 09:01:07;;;;;;;8.63;4.85;;;;;;;;;;4917612;29;20040;-79
2021/12/06 09:03:34;;;;;;;8.23;5.32;;;;;;;;;;4917564;29;20099;-81
2021/12/06 09:06:01;;;;;;;10.32;9.63;;;;;;;;;;4900321;29;20418;-78
2021/12/06 09:08:27;;;;;;;6.28;5.05;;;;;;;;;;4916983;29;20032;-80
2021/12/06 09:10:53;;;;;;;9.18;5.47;;;;;;;;;;4900143;29;20047;-79
2021/12/06 09:13:21;;;;;;;11.13;6.35;;;;;;;;;;4917107;29;20036;-80
2021/12/06 09:15:47;;;;;;;6.50;5.65;;;;;;;;;;4917410;29;20028;-78
2021/12/06 09:18:13;;;;;;;8.63;5.75;;;;;;;;;;4917083;29;20541;-79
2021/12/06 09:20:42;;;;;;;7.25;6.65;;;;;;;;;;4916764;29;20388;-79
2021/12/06 09:23:09;;;;;;;8.68;5.47;;;;;;;;;;4917048;29;20047;-80
2021/12/06 09:25:35;;;;;;;6.13;4.63;;;;;;;;;;4916931;29;20786;-79
2021/12/06 09:28:02;;;;;;;7.35;5.60;;;;;;;;;;4917397;29;20042;-78
2021/12/06 09:30:32;;;;;;;6.78;5.15;;;;;;;;;;4916801;29;20032;-79
2021/12/06 09:32:59;;;;;;;6.47;5.47;;;;;;;;;;4916571;29;20036;-81
2021/12/06 09:35:28;;;;;;;11.75;7.72;;;;;;;;;;4916058;29;20304;-80
2021/12/06 09:37:56;;;;;;;7.95;6.13;;;;;;;;;;4916272;29;20043;-79
2021/12/06 09:40:24;;;;;;;8.98;5.88;;;;;;;;;;4899448;29;20040;-79
2021/12/06 09:42:49;;;;;;;9.68;5.45;;;;;;;;;;4916373;29;20040;-79
2021/12/06 09:45:19;;;;;;;6.35;5.68;;;;;;;;;;4916373;29;20031;-78
2021/12/06 09:47:51;;;;;;;7.35;5.38;;;;;;;;;;4916457;29;20032;-78
2021/12/06 09:50:24;;;;;;;7.43;6.10;;;;;;;;;;4916677;29;20466;-79
2021/12/06 09:52:50;;;;;;;6.05;5.00;;;;;;;;;;4908285;29;20056;-79
2021/12/06 09:55:16;;;;;;;5.43;4.90;;;;;;;;;;4929295;29;20035;-79
2021/12/06 09:57:42;;;;;;;7.93;5.22;;;;;;;;;;4930731;29;20129;-78
2021/12/06 10:00:10;;;;;;;8.38;4.57;;;;;;;;;;4931316;29;20046;-79
2021/12/06 10:02:36;;;;;;;5.30;4.10;;;;;;;;;;4930648;29;20036;-80
2021/12/06 10:05:03;;;;;;;9.90;5.13;;;;;;;;;;4929606;29;20052;-80
2021/12/06 10:07:29;;;;;;;5.70;4.78;;;;;;;;;;4931299;29;20126;-80
2021/12/06 10:09:55;;;;;;;7.88;5.70;;;;;;;;;;4931469;29;20231;-79
2021/12/06 10:12:22;;;;;;;7.32;5.47;;;;;;;;;;4931624;29;20036;-78
2021/12/06 10:14:47;;;;;;;5.55;4.35;;;;;;;;;;4931533;29;20156;-79
2021/12/06 10:17:15;;;;;;;5.15;4.63;;;;;;;;;;4930705;29;20122;-81
2021/12/06 10:19:41;;;;;;;6.43;5.18;;;;;;;;;;4931132;29;20364;-80
2021/12/06 10:22:07;;;;;;;9.73;5.38;;;;;;;;;;4931943;29;20047;-79
2021/12/06 10:24:35;;;;;;;6.47;5.13;;;;;;;;;;4933163;29;20376;-79
2021/12/06 10:27:07;;;;;;;7.57;5.55;;;;;;;;;;4912199;29;20035;-79
2021/12/06 10:29:46;;;;;;;11.02;5.78;;;;;;;;;;4929827;29;20545;-81
2021/12/06 10:32:18;;;;;;;8.32;5.53;;;;;;;;;;4932496;29;20086;-79
2021/12/06 10:34:56;;;;;;;6.25;4.72;;;;;;;;;;4932018;29;20038;-79
2021/12/06 10:37:45;;;;;;;5.85;4.82;;;;;;;;;;4933078;29;20046;-80
2021/12/06 10:40:22;;;;;;;6.47;5.63;;;;;;;;;;4928724;29;20042;-79
2021/12/06 10:42:49;;;;;;;5.95;5.18;;;;;;;;;;4933796;29;20218;-80
2021/12/06 10:45:28;;;;;;;7.65;5.07;;;;;;;;;;4933429;29;20050;-78
2021/12/06 10:48:16;;;;;;;10.18;5.88;;;;;;;;;;4929350;29;20035;-79
2021/12/06 10:50:42;;;;;;;7.32;4.65;;;;;;;;;;4933341;29;20036;-79
2021/12/06 10:53:08;;;;;;;6.25;5.45;;;;;;;;;;4933463;29;20043;-79
2021/12/06 10:55:36;;;;;;;7.43;5.55;;;;;;;;;;4932761;29;20466;-79
2021/12/06 10:58:05;;;;;;;8.40;5.35;;;;;;;;;;4933366;29;20032;-81
2021/12/06 11:00:46;;;;;;;9.05;5.70;;;;;;;;;;4932718;29;20035;-79
2021/12/06 11:03:25;;;;;;;9.55;6.32;;;;;;;;;;4932994;29;20099;-79
2021/12/06 11:05:59;;;;;;;5.45;4.95;;;;;;;;;;4933290;29;20123;-81
2021/12/06 11:08:25;;;;;;;8.90;5.22;;;;;;;;;;4912381;29;20534;-80
2021/12/06 11:10:57;;;;;;;7.47;5.28;;;;;;;;;;4927455;29;20560;-81
2021/12/06 11:13:27;;;;;;;9.20;5.63;;;;;;;;;;4932883;29;20032;-81
2021/12/06 11:16:07;;;;;;;9.25;6.45;;;;;;;;;;4916700;29;20038;-79
2021/12/06 11:18:45;;;;;;;6.55;5.60;;;;;;;;;;4933675;29;20067;-81
2021/12/06 11:21:18;;;;;;;14.88;6.25;;;;;;;;;;4933835;29;20038;-79
2021/12/06 11:24:07;;;;;;;7.75;6.00;;;;;;;;;;4932678;29;20635;-79
2021/12/06 11:26:44;;;;;;;8.75;5.72;;;;;;;;;;4933425;29;20062;-83
2021/12/06 11:29:24;;;;;;;9.93;5.60;;;;;;;;;;4934990;29;20142;-82
2021/12/06 11:32:06;;;;;;;9.05;5.20;;;;;;;;;;4932272;29;20185;-83
2021/12/06 11:34:37;;;;;;;6.78;5.38;;;;;;;;;;4931413;29;20032;-78
2021/12/06 11:37:09;;;;;;;7.20;5.40;;;;;;;;;;4915808;29;20139;-83
2021/12/06 11:39:34;;;;;;;5.97;5.00;;;;;;;;;;4897917;29;20174;-83
2021/12/06 11:42:00;;;;;;;6.68;5.93;;;;;;;;;;4925016;29;20061;-80
2021/12/06 11:44:32;;;;;;;12.82;6.78;;;;;;;;;;4934328;29;20055;-82
2021/12/06 11:47:05;;;;;;;8.15;6.80;;;;;;;;;;4933374;29;20031;-81
2021/12/06 11:49:38;;;;;;;9.25;6.45;;;;;;;;;;4913935;29;20053;-79
2021/12/06 11:52:07;;;;;;;10.57;6.13;;;;;;;;;;4915150;29;20078;-80
2021/12/06 11:54:56;;;;;;;11.75;6.32;;;;;;;;;;4911841;29;20130;-80
2021/12/06 11:57:24;;;;;;;;;;;;;;;;;;4914432;29;20036;-82
2021/12/06 11:59:57;;;;;;;8.95;5.18;;;;;;;;;;4916622;29;19915;-81
2021/12/06 12:02:56;;;;;;;11.18;6.20;;;;;;;;;;4929866;29;20035;-80
2021/12/06 12:05:28;;;;;;;5.25;4.75;;;;;;;;;;4893228;29;20044;-81
2021/12/06 12:08:11;;;;;;;6.78;5.40;;;;;;;;;;4916202;29;20667;-82
2021/12/06 12:10:47;;;;;;;5.93;5.32;;;;;;;;;;4918773;29;20526;-81
2021/12/06 12:13:35;;;;;;;12.23;5.90;;;;;;;;;;4917342;29;20062;-81
2021/12/06 12:16:03;;;;;;;11.20;5.38;;;;;;;;;;4928480;29;20036;-82
2021/12/06 12:18:30;;;;;;;5.82;5.20;;;;;;;;;;4920106;29;20034;-80
2021/12/06 12:20:56;;;;;;;6.40;4.75;;;;;;;;;;4920009;29;20035;-80
2021/12/06 12:23:24;;;;;;;10.85;5.32;;;;;;;;;;4937114;29;20455;-83
2021/12/06 12:25:58;;;;;;;6.55;5.75;;;;;;;;;;4935513;29;20054;-83
2021/12/06 12:28:35;;;;;;;7.53;4.88;;;;;;;;;;4939212;29;20031;-83
2021/12/06 12:31:01;;;;;;;10.25;5.40;;;;;;;;;;4937041;29;20134;-83
2021/12/06 12:33:27;;;;;;;6.10;4.75;;;;;;;;;;4940007;29;20036;-84
2021/12/06 12:35:57;;;;;;;9.02;5.50;;;;;;;;;;4939381;29;20119;-82
2021/12/06 12:38:27;;;;;;;7.72;5.80;;;;;;;;;;4919629;29;20048;-84
2021/12/06 12:40:57;;;;;;;5.60;4.80;;;;;;;;;;4922226;29;20043;-83
2021/12/06 12:43:44;;;;;;;5.28;4.72;;;;;;;;;;4920272;29;20039;-82
2021/12/06 12:46:22;;;;;;;5.45;4.93;;;;;;;;;;4919890;29;20039;-83
2021/12/06 12:48:58;;;;;;;4.75;4.35;;;;;;;;;;4917944;29;20036;-80
2021/12/06 12:51:32;;;;;;;6.30;4.68;;;;;;;;;;4919172;29;20107;-83
2021/12/06 12:54:03;;;;;;;6.20;5.43;;;;;;;;;;4919003;29;20040;-83
2021/12/06 12:56:53;;;;;;;7.93;5.93;;;;;;;;;;4918068;29;20507;-81
2021/12/06 12:59:26;;;;;;;5.68;5.05;;;;;;;;;;4911977;29;20040;-80
2021/12/06 13:02:28;;;;;;;7.70;5.00;;;;;;;;;;4914067;29;20035;-81
2021/12/06 13:04:59;;;;;;;8.65;5.00;;;;;;;;;;4917682;29;20027;-83
2021/12/06 13:07:26;;;;;;;9.57;5.88;;;;;;;;;;4917099;29;20505;-82
2021/12/06 13:09:53;;;;;;;6.30;5.28;;;;;;;;;;4916926;29;20032;-83
